Time;durP1;ratioP1;P1;durP2;ratioP2;P2;SDS_P1;SDS_P2;PMS_P1;PMS_P2;Temp;Humidity;BMP_temperature;BMP_pressure;BME280_temperature;BME280_humidity;BME280_pressure;Samples;Min_cycle;Max_cycle;Signal;HPM_P1;HPM_P2
2021/12/05 00:21:58;;;;;;;13.40;11.38;;;3.50;99.90;;;;;;5114801;28;20186;-58
2021/12/05 00:24:28;;;;;;;13.23;11.82;;;3.60;99.90;;;;;;5116425;28;20257;-57
2021/12/05 00:27:03;;;;;;;12.27;10.20;;;3.60;99.90;;;;;;5118419;28;20643;-58
2021/12/05 00:29:36;;;;;;;15.40;11.73;;;3.60;99.90;;;;;;5118550;28;20190;-58
2021/12/05 00:32:16;;;;;;;13.73;11.65;;;3.60;99.90;;;;;;5119165;28;20609;-57
2021/12/05 00:49:12;;;;;;;16.35;12.18;;;3.80;99.90;;;;;;5117728;28;20277;-57
2021/12/05 01:00:11;;;;;;;16.27;12.30;;;4.00;99.90;;;;;;5117231;28;20183;-56
2021/12/05 01:03:02;;;;;;;13.80;11.32;;;4.00;99.90;;;;;;5117244;28;20609;-54
2021/12/05 01:11:29;;;;;;;15.88;12.27;;;4.10;99.90;;;;;;5116167;28;20203;-58
2021/12/05 01:14:10;;;;;;;17.23;11.90;;;4.20;99.90;;;;;;5117093;28;20565;-58
2021/12/05 01:16:38;;;;;;;16.88;12.30;;;4.20;99.90;;;;;;5117112;28;20206;-57
2021/12/05 01:19:07;;;;;;;17.88;12.98;;;4.20;99.90;;;;;;5117073;28;20226;-56
2021/12/05 01:21:36;;;;;;;15.85;12.23;;;4.20;99.90;;;;;;5116901;28;20208;-58
2021/12/05 01:24:14;;;;;;;19.20;13.57;;;4.30;99.90;;;;;;5116760;28;20223;-57
2021/12/05 01:26:48;;;;;;;17.15;14.23;;;4.30;99.90;;;;;;5116538;28;20188;-57
2021/12/05 01:29:28;;;;;;;22.88;13.93;;;4.30;99.90;;;;;;5116734;28;20597;-57
2021/12/05 01:32:05;;;;;;;19.23;13.95;;;4.40;99.90;;;;;;5116514;28;20525;-58
2021/12/05 01:34:46;;;;;;;19.52;13.52;;;4.40;99.90;;;;;;5116412;28;20237;-57
2021/12/05 01:37:25;;;;;;;21.60;14.75;;;4.40;99.90;;;;;;5116427;28;20212;-57
2021/12/05 01:40:24;;;;;;;19.52;14.23;;;4.40;99.90;;;;;;5117325;28;20183;-57
2021/12/05 01:51:55;;;;;;;24.77;14.55;;;4.50;99.90;;;;;;5054642;28;20189;-58
2021/12/05 01:54:44;;;;;;;22.10;14.95;;;4.50;99.90;;;;;;5054356;28;20695;-58
2021/12/05 01:57:38;;;;;;;21.20;14.88;;;4.50;99.90;;;;;;5102522;28;20200;-57
2021/12/05 02:00:37;;;;;;;18.17;14.15;;;4.50;99.90;;;;;;5116969;28;20191;-57
2021/12/05 02:09:05;;;;;;;20.60;13.32;;;4.60;99.90;;;;;;5116092;28;20225;-57
2021/12/05 02:31:15;;;;;;;19.20;14.38;;;4.80;99.90;;;;;;5115580;28;20183;-58
2021/12/05 02:39:27;;;;;;;18.02;13.90;;;4.70;99.90;;;;;;5115336;28;20192;-58
2021/12/05 02:41:56;;;;;;;25.98;15.20;;;4.70;99.90;;;;;;5115193;28;20714;-59
2021/12/05 02:44:25;;;;;;;22.65;14.32;;;4.70;99.90;;;;;;5115417;28;20262;-59
2021/12/05 02:46:59;;;;;;;18.02;14.50;;;4.70;99.90;;;;;;5114665;28;20208;-57
2021/12/05 02:49:26;;;;;;;20.02;15.40;;;4.70;99.90;;;;;;5124071;28;20195;-58
2021/12/05 02:51:57;;;;;;;22.67;16.05;;;4.70;99.90;;;;;;5124908;28;20678;-56
2021/12/05 02:54:30;;;;;;;23.08;15.82;;;4.60;99.90;;;;;;5125756;28;20280;-57
2021/12/05 02:56:59;;;;;;;23.73;15.18;;;4.60;99.90;;;;;;5125836;28;20184;-57
2021/12/05 02:59:38;;;;;;;22.10;15.73;;;4.60;99.90;;;;;;5125144;28;20299;-57
2021/12/05 03:02:11;;;;;;;21.33;16.05;;;4.60;99.90;;;;;;5126448;28;20256;-57
2021/12/05 03:04:41;;;;;;;23.38;17.00;;;4.70;99.90;;;;;;5124539;28;20227;-57
2021/12/05 03:07:10;;;;;;;20.13;16.90;;;4.70;99.90;;;;;;5123847;28;20206;-58
2021/12/05 03:09:41;;;;;;;20.13;16.65;;;4.70;99.90;;;;;;5118168;28;20223;-57
2021/12/05 03:12:11;;;;;;;27.45;18.90;;;4.70;99.90;;;;;;5119423;28;20187;-58
2021/12/05 03:14:38;;;;;;;22.95;18.30;;;4.70;99.90;;;;;;5118783;28;20223;-58
2021/12/05 03:17:06;;;;;;;28.98;17.75;;;4.80;99.90;;;;;;5119115;28;20525;-57
2021/12/05 03:19:33;;;;;;;23.48;18.83;;;4.80;99.90;;;;;;5118447;28;20199;-56
2021/12/05 03:22:00;;;;;;;25.50;18.23;;;4.80;99.90;;;;;;5120337;28;20204;-57
2021/12/05 03:24:29;;;;;;;24.77;17.98;;;4.80;99.90;;;;;;5116195;28;20220;-57
2021/12/05 03:26:57;;;;;;;23.83;19.58;;;4.80;99.90;;;;;;5115327;28;20577;-57
2021/12/05 03:29:25;;;;;;;23.88;18.40;;;4.80;99.90;;;;;;5114824;28;20207;-56
2021/12/05 03:31:55;;;;;;;26.38;20.08;;;4.80;99.90;;;;;;5114287;28;20303;-57
2021/12/05 03:34:23;;;;;;;26.55;20.77;;;4.80;99.90;;;;;;5114040;28;20219;-57
2021/12/05 03:36:54;;;;;;;27.02;20.27;;;4.80;99.90;;;;;;5114414;28;20199;-58
2021/12/05 03:39:21;;;;;;;23.27;20.33;;;4.80;99.90;;;;;;5115271;28;20538;-57
2021/12/05 03:41:49;;;;;;;29.40;20.13;;;4.90;99.90;;;;;;5114267;28;20209;-58
2021/12/05 03:44:20;;;;;;;25.17;19.38;;;4.80;99.90;;;;;;5113867;28;20222;-57
2021/12/05 03:46:49;;;;;;;25.05;19.35;;;4.90;99.90;;;;;;5114358;28;20180;-57
2021/12/05 03:49:17;;;;;;;28.02;19.52;;;4.90;99.90;;;;;;5114277;28;20199;-57
2021/12/05 03:51:49;;;;;;;29.60;19.23;;;4.90;99.90;;;;;;5114918;28;20199;-57
2021/12/05 03:54:17;;;;;;;22.83;18.75;;;4.90;99.90;;;;;;5114147;28;20652;-58
2021/12/05 03:56:45;;;;;;;24.40;19.25;;;4.90;99.90;;;;;;5115220;28;20567;-57
2021/12/05 03:59:13;;;;;;;26.35;19.35;;;5.00;99.90;;;;;;5113942;28;20200;-57
2021/12/05 04:01:42;;;;;;;30.23;20.13;;;5.00;99.90;;;;;;5114072;28;20203;-59
2021/12/05 04:04:11;;;;;;;35.20;21.02;;;5.00;99.90;;;;;;5114274;28;20211;-58
2021/12/05 04:09:01;;;;;;;26.48;18.88;;;5.00;99.90;;;;;;5091873;27;20580;-58
2021/12/05 04:11:35;;;;;;;27.52;18.90;;;5.00;99.90;;;;;;5096791;28;20603;-58
2021/12/05 04:14:04;;;;;;;29.10;19.48;;;5.00;99.90;;;;;;5095555;28;20219;-57
2021/12/05 04:16:31;;;;;;;22.25;18.08;;;5.10;99.90;;;;;;5092612;28;20547;-58
2021/12/05 04:18:58;;;;;;;27.73;18.63;;;5.10;99.90;;;;;;5092741;28;20200;-57
2021/12/05 04:21:26;;;;;;;31.83;18.55;;;5.10;99.90;;;;;;5094906;22;20705;-61
2021/12/05 04:23:53;;;;;;;23.73;17.70;;;5.10;99.90;;;;;;5050666;28;20236;-61
2021/12/05 04:26:22;;;;;;;26.60;18.27;;;5.10;99.90;;;;;;5051131;28;20213;-62
2021/12/05 04:28:49;;;;;;;22.30;17.48;;;5.10;99.90;;;;;;5051025;28;20229;-59
2021/12/05 04:31:20;;;;;;;24.30;17.80;;;5.10;99.90;;;;;;5050538;28;20222;-61
2021/12/05 04:33:47;;;;;;;26.52;16.70;;;5.10;99.90;;;;;;5050861;28;20194;-61
2021/12/05 04:36:14;;;;;;;24.70;18.02;;;5.10;99.90;;;;;;5050825;28;20209;-62
2021/12/05 04:38:42;;;;;;;28.20;16.75;;;5.10;99.90;;;;;;5050635;28;20201;-61
2021/12/05 04:41:09;;;;;;;23.55;15.73;;;5.10;99.90;;;;;;5050408;28;20229;-61
2021/12/05 04:43:38;;;;;;;18.33;15.40;;;5.00;99.90;;;;;;5050697;28;20209;-61
2021/12/05 04:46:07;;;;;;;20.75;15.52;;;5.00;99.90;;;;;;5050351;28;20252;-61
2021/12/05 04:48:34;;;;;;;23.98;15.45;;;5.00;99.90;;;;;;5050202;28;20229;-59
2021/12/05 04:51:02;;;;;;;18.40;15.20;;;5.00;99.90;;;;;;5050764;28;20225;-61
2021/12/05 04:53:29;;;;;;;19.63;14.80;;;5.00;99.90;;;;;;5050695;28;20697;-62
2021/12/05 04:55:57;;;;;;;21.42;14.20;;;4.90;99.90;;;;;;5050449;28;20209;-61
2021/12/05 04:58:25;;;;;;;21.20;15.25;;;4.90;99.90;;;;;;5050019;28;20206;-62
2021/12/05 05:00:57;;;;;;;20.02;13.98;;;4.90;99.90;;;;;;5049927;28;20338;-61
2021/12/05 05:03:24;;;;;;;18.40;13.40;;;4.90;99.90;;;;;;5050138;28;20220;-61
2021/12/05 05:05:58;;;;;;;15.48;13.98;;;4.90;99.90;;;;;;5049554;28;20701;-61
2021/12/05 05:08:26;;;;;;;20.20;14.30;;;4.90;99.90;;;;;;5050203;28;20217;-61
2021/12/05 05:10:53;;;;;;;16.92;12.50;;;4.90;99.90;;;;;;5049702;28;20230;-62
2021/12/05 05:13:21;;;;;;;16.40;11.68;;;4.90;99.90;;;;;;5049461;28;20576;-61
2021/12/05 05:15:48;;;;;;;16.35;11.18;;;4.90;99.90;;;;;;5049365;28;20264;-61
2021/12/05 05:18:16;;;;;;;22.02;11.65;;;4.90;99.90;;;;;;5048094;28;20198;-61
2021/12/05 05:20:51;;;;;;;13.55;11.02;;;4.90;99.90;;;;;;5036022;28;20226;-61
2021/12/05 05:26:44;;;;;;;22.00;11.52;;;4.90;99.90;;;;;;5034804;28;20680;-60
2021/12/05 05:40:29;;;;;;;14.55;9.90;;;4.70;99.90;;;;;;5035969;28;20190;-62
2021/12/05 05:46:05;;;;;;;13.88;10.23;;;4.50;99.90;;;;;;5036132;28;20181;-62
2021/12/05 05:48:36;;;;;;;14.63;10.45;;;4.50;99.90;;;;;;5035745;28;20245;-61
2021/12/05 05:51:08;;;;;;;15.93;9.75;;;4.40;99.90;;;;;;5035393;28;20258;-60
2021/12/05 05:53:35;;;;;;;12.80;9.15;;;4.30;99.90;;;;;;5035953;28;20190;-62
2021/12/05 05:56:04;;;;;;;12.25;8.70;;;4.30;99.90;;;;;;5035691;28;20209;-62
2021/12/05 05:58:40;;;;;;;13.82;8.30;;;4.30;99.90;;;;;;5035672;28;20213;-62
2021/12/05 06:01:09;;;;;;;15.95;8.85;;;4.20;99.90;;;;;;5035762;28;20222;-61
2021/12/05 06:03:35;;;;;;;20.02;11.35;;;4.20;99.90;;;;;;5035458;28;20213;-61
2021/12/05 06:06:06;;;;;;;13.55;8.52;;;4.10;99.90;;;;;;5035742;28;20202;-61
2021/12/05 06:08:36;;;;;;;15.90;7.85;;;4.10;99.90;;;;;;5035392;28;20689;-61
2021/12/05 06:11:05;;;;;;;12.65;7.97;;;4.10;99.90;;;;;;5035622;28;20710;-61
2021/12/05 06:13:33;;;;;;;16.83;8.65;;;4.10;99.90;;;;;;5035623;28;20206;-61
2021/12/05 06:16:00;;;;;;;10.95;8.85;;;4.10;99.90;;;;;;5035882;28;20206;-61
2021/12/05 06:18:27;;;;;;;14.00;8.60;;;4.20;99.90;;;;;;5037450;28;20674;-60
2021/12/05 06:20:55;;;;;;;12.32;8.55;;;4.20;99.90;;;;;;5036452;28;20235;-61
2021/12/05 06:23:24;;;;;;;15.30;8.95;;;4.20;99.90;;;;;;5036312;28;20206;-59
2021/12/05 06:25:52;;;;;;;11.38;8.68;;;4.20;99.90;;;;;;5035944;28;20579;-61
2021/12/05 06:28:26;;;;;;;10.90;8.23;;;4.20;99.90;;;;;;5035511;28;20229;-61
2021/12/05 06:30:59;;;;;;;12.50;7.93;;;4.20;99.90;;;;;;5034780;28;20230;-62
2021/12/05 06:41:54;;;;;;;18.23;7.55;;;4.30;99.90;;;;;;5042259;28;20218;-61
2021/12/05 06:47:10;;;;;;;9.40;7.53;;;4.50;99.90;;;;;;5036098;28;20609;-61
2021/12/05 06:49:37;;;;;;;11.57;7.43;;;4.50;99.90;;;;;;5034994;28;20620;-61
2021/12/05 06:52:06;;;;;;;11.18;6.57;;;4.50;99.90;;;;;;5035623;28;20223;-61
2021/12/05 06:54:35;;;;;;;10.82;6.95;;;4.60;99.90;;;;;;5035894;28;20212;-62
2021/12/05 06:57:03;;;;;;;13.77;7.05;;;4.60;99.90;;;;;;5035847;28;20225;-61
2021/12/05 06:59:30;;;;;;;14.38;7.18;;;4.70;99.90;;;;;;5035268;28;20194;-62
2021/12/05 07:01:57;;;;;;;14.88;8.30;;;4.70;99.90;;;;;;5034519;28;20252;-60
2021/12/05 07:07:08;;;;;;;14.13;7.20;;;4.70;99.90;;;;;;5034407;28;20198;-62
2021/12/05 07:09:37;;;;;;;8.77;7.03;;;4.80;99.90;;;;;;5034400;28;20271;-61
2021/12/05 07:12:33;;;;;;;9.35;7.30;;;4.80;99.90;;;;;;5034386;28;20218;-60
2021/12/05 07:15:03;;;;;;;21.80;8.07;;;4.80;99.90;;;;;;5034168;28;20301;-60
2021/12/05 07:20:09;;;;;;;10.83;7.87;;;4.80;99.90;;;;;;5034111;28;20201;-62
2021/12/05 07:22:44;;;;;;;14.80;7.60;;;4.80;99.90;;;;;;5034080;28;20457;-61
2021/12/05 07:25:24;;;;;;;14.85;7.20;;;4.80;99.90;;;;;;5034352;28;20186;-62
2021/12/05 07:41:48;;;;;;;15.27;7.80;;;4.90;99.90;;;;;;5034446;28;20221;-61
2021/12/05 07:44:16;;;;;;;11.20;8.05;;;5.00;99.90;;;;;;5034467;28;20286;-60
2021/12/05 07:46:45;;;;;;;14.93;7.50;;;5.00;99.90;;;;;;5034618;28;20214;-61
2021/12/05 07:49:13;;;;;;;11.43;7.43;;;5.00;99.90;;;;;;5034754;28;20813;-61
2021/12/05 07:51:44;;;;;;;14.38;6.18;;;5.10;99.90;;;;;;5034326;28;20222;-61
2021/12/05 07:54:17;;;;;;;14.35;6.65;;;5.10;99.90;;;;;;5033662;28;20187;-60
2021/12/05 07:56:50;;;;;;;13.45;6.07;;;5.10;99.90;;;;;;5034261;28;20191;-61
2021/12/05 07:59:35;;;;;;;13.88;6.47;;;5.10;99.90;;;;;;5036535;28;20183;-60
2021/12/05 08:16:02;;;;;;;15.05;6.30;;;5.30;99.90;;;;;;5034024;28;20180;-60
2021/12/05 08:18:30;;;;;;;10.30;6.15;;;5.30;99.90;;;;;;5033209;28;20198;-62
2021/12/05 08:20:59;;;;;;;18.45;7.90;;;5.30;99.90;;;;;;5033196;28;20226;-61
2021/12/05 08:23:28;;;;;;;10.48;5.82;;;5.30;99.90;;;;;;5033154;28;20188;-61
2021/12/05 08:26:04;;;;;;;11.65;5.70;;;5.30;99.90;;;;;;5033293;28;20212;-61
2021/12/05 08:28:52;;;;;;;7.28;5.75;;;5.30;99.90;;;;;;5033514;28;20212;-63
2021/12/05 08:31:30;;;;;;;10.70;5.50;;;5.30;99.90;;;;;;5033138;28;20312;-62
2021/12/05 08:34:07;;;;;;;11.15;5.80;;;5.30;99.90;;;;;;5032973;28;20558;-61
2021/12/05 08:42:27;;;;;;;11.13;5.40;;;5.40;99.90;;;;;;5033712;28;20300;-60
2021/12/05 08:45:36;;;;;;;5.70;4.75;;;5.40;99.90;;;;;;5033974;28;20199;-60
2021/12/05 09:26:57;;;;;;;8.65;4.60;;;5.80;99.90;;;;;;5037670;28;20172;-61
2021/12/05 10:02:46;;;;;;;6.65;3.95;;;6.90;99.90;;;;;;5033119;28;20201;-60
2021/12/05 10:11:16;;;;;;;7.20;4.20;;;7.20;99.90;;;;;;4993876;28;20235;-62
2021/12/05 10:13:57;;;;;;;9.18;4.25;;;7.30;99.90;;;;;;5031407;28;20217;-64
2021/12/05 10:16:50;;;;;;;5.95;4.20;;;7.40;99.90;;;;;;5036036;28;20235;-64
2021/12/05 10:36:05;;;;;;;4.88;2.90;;;7.40;99.90;;;;;;5037070;28;20282;-58
2021/12/05 10:38:40;;;;;;;7.75;2.90;;;7.60;99.90;;;;;;5036440;28;20252;-60
2021/12/05 10:41:34;;;;;;;5.53;2.58;;;7.70;99.90;;;;;;5035408;28;20228;-62
2021/12/05 10:44:06;;;;;;;5.70;2.50;;;7.80;99.90;;;;;;5034963;28;20187;-60
2021/12/05 10:46:34;;;;;;;4.43;2.35;;;7.90;99.90;;;;;;5035118;28;20187;-61
2021/12/05 10:49:04;;;;;;;4.97;2.80;;;8.00;99.90;;;;;;5036074;28;20698;-61
2021/12/05 10:51:34;;;;;;;5.85;3.00;;;8.10;99.90;;;;;;5035863;28;20403;-59
2021/12/05 10:54:02;;;;;;;5.30;2.45;;;8.20;99.90;;;;;;5034874;28;20202;-61
2021/12/05 10:56:33;;;;;;;6.15;3.28;;;8.20;99.90;;;;;;5034701;28;20206;-61
2021/12/05 10:59:04;;;;;;;5.05;2.40;;;8.20;99.90;;;;;;5034570;28;20542;-62
2021/12/05 11:01:35;;;;;;;7.25;2.60;;;8.20;99.90;;;;;;5034577;28;20226;-61
2021/12/05 11:04:05;;;;;;;3.58;1.90;;;8.30;99.90;;;;;;5035266;28;20194;-59
2021/12/05 11:06:38;;;;;;;6.07;2.78;;;8.40;99.90;;;;;;5034769;28;20202;-60
2021/12/05 11:09:09;;;;;;;5.28;2.25;;;8.50;99.90;;;;;;5034565;28;20214;-61
2021/12/05 11:11:38;;;;;;;5.50;1.58;;;8.40;99.20;;;;;;5034487;28;20225;-61
2021/12/05 11:14:12;;;;;;;5.40;2.40;;;8.30;98.90;;;;;;5034088;28;20210;-60
2021/12/05 11:16:50;;;;;;;4.88;2.17;;;8.10;98.60;;;;;;5033741;28;20191;-60
2021/12/05 11:19:24;;;;;;;2.70;2.10;;;8.00;98.60;;;;;;5034027;28;20633;-61
2021/12/05 11:21:56;;;;;;;3.10;1.90;;;7.90;98.80;;;;;;5033876;28;20264;-60
2021/12/05 11:24:29;;;;;;;3.97;2.15;;;7.80;98.70;;;;;;5034658;28;20197;-62
2021/12/05 11:27:20;;;;;;;6.40;2.65;;;7.80;98.80;;;;;;5034460;28;20210;-59
2021/12/05 11:29:59;;;;;;;7.97;2.55;;;8.00;98.70;;;;;;5037216;28;20210;-62
2021/12/05 11:32:33;;;;;;;4.35;2.30;;;8.00;98.00;;;;;;5036116;28;20225;-60
2021/12/05 11:35:13;;;;;;;3.78;1.85;;;8.10;97.90;;;;;;5033911;28;20634;-60
2021/12/05 11:37:52;;;;;;;3.17;1.80;;;8.20;97.40;;;;;;5033867;28;20190;-60
2021/12/05 11:40:19;;;;;;;7.50;2.40;;;8.20;97.20;;;;;;5033420;28;20201;-60
2021/12/05 11:42:59;;;;;;;6.60;2.30;;;8.20;97.00;;;;;;5033775;28;20207;-61
2021/12/05 11:45:27;;;;;;;3.80;2.13;;;8.30;97.00;;;;;;5034103;28;20225;-61
2021/12/05 11:47:54;;;;;;;9.52;2.38;;;8.20;96.50;;;;;;5034021;28;20210;-61
2021/12/05 11:50:32;;;;;;;8.10;2.28;;;8.10;96.00;;;;;;5033699;28;20225;-61
2021/12/05 11:53:00;;;;;;;3.50;2.33;;;8.00;95.80;;;;;;5037240;28;20258;-61
2021/12/05 11:55:31;;;;;;;2.90;1.83;;;7.90;95.60;;;;;;5037636;28;20202;-60
2021/12/05 11:58:00;;;;;;;8.32;2.53;;;7.90;95.60;;;;;;5036744;28;20270;-59
2021/12/05 12:00:29;;;;;;;6.57;2.15;;;7.80;95.40;;;;;;5034600;28;20696;-57
2021/12/05 12:02:56;;;;;;;5.70;2.08;;;7.90;95.40;;;;;;5033882;28;20203;-59
2021/12/05 12:05:31;;;;;;;7.82;2.00;;;7.90;95.20;;;;;;5033892;28;20207;-61
2021/12/05 12:08:05;;;;;;;3.90;1.90;;;7.90;94.90;;;;;;5033606;28;20642;-61
2021/12/05 12:10:34;;;;;;;5.65;2.33;;;7.80;94.70;;;;;;5034155;28;20230;-61
2021/12/05 12:13:07;;;;;;;5.78;1.80;;;7.80;94.40;;;;;;5033947;28;20579;-62
2021/12/05 12:15:36;;;;;;;4.55;2.05;;;7.70;94.50;;;;;;5033682;28;20193;-62
2021/12/05 12:18:09;;;;;;;8.40;2.13;;;7.70;94.50;;;;;;5033915;28;20580;-61
2021/12/05 12:20:39;;;;;;;10.32;2.60;;;7.70;94.50;;;;;;5033545;28;20261;-59
2021/12/05 12:23:07;;;;;;;8.30;2.42;;;7.70;94.40;;;;;;5034297;28;20263;-61
2021/12/05 12:25:37;;;;;;;5.63;2.00;;;7.70;94.30;;;;;;5034147;28;20210;-61
2021/12/05 12:28:07;;;;;;;4.65;2.22;;;7.60;94.20;;;;;;5035706;28;20690;-61
2021/12/05 12:30:38;;;;;;;6.72;2.38;;;7.60;94.00;;;;;;5036994;28;20255;-61
2021/12/05 12:33:08;;;;;;;5.38;2.15;;;7.60;94.00;;;;;;5037047;28;20635;-60
2021/12/05 12:35:36;;;;;;;2.90;1.80;;;7.60;94.00;;;;;;5037704;28;20287;-59
2021/12/05 12:38:07;;;;;;;5.55;2.40;;;7.70;94.00;;;;;;5037678;28;20210;-60
2021/12/05 12:40:45;;;;;;;4.53;2.58;;;7.70;93.80;;;;;;5038179;28;20218;-60
2021/12/05 12:43:38;;;;;;;4.80;1.90;;;7.60;93.70;;;;;;5037696;28;20599;-56
2021/12/05 12:46:23;;;;;;;9.18;2.60;;;7.60;93.60;;;;;;5037326;28;20237;-61
2021/12/05 12:48:54;;;;;;;6.32;3.03;;;7.50;93.50;;;;;;5036913;28;20187;-61
2021/12/05 12:51:34;;;;;;;8.55;2.22;;;7.50;93.70;;;;;;5036878;28;20222;-61
2021/12/05 12:54:06;;;;;;;3.75;1.90;;;7.50;93.90;;;;;;5036907;28;20187;-61
2021/12/05 12:56:36;;;;;;;5.35;1.75;;;7.50;93.90;;;;;;5036619;28;20191;-60
2021/12/05 12:59:10;;;;;;;3.78;1.90;;;7.50;93.70;;;;;;5036772;28;20590;-62
2021/12/05 13:02:01;;;;;;;4.80;1.75;;;7.50;93.50;;;;;;5036761;28;20276;-60
2021/12/05 13:05:02;;;;;;;6.07;2.45;;;7.40;93.50;;;;;;5036852;28;20187;-61
2021/12/05 13:10:24;;;;;;;5.20;2.17;;;7.40;93.80;;;;;;5036737;28;20348;-60
2021/12/05 13:12:55;;;;;;;4.50;1.80;;;7.40;93.70;;;;;;5036983;28;20186;-60
2021/12/05 13:15:33;;;;;;;12.38;2.70;;;7.40;93.50;;;;;;5037172;28;20206;-61
2021/12/05 13:18:04;;;;;;;4.38;1.70;;;7.30;93.20;;;;;;5036587;28;20229;-60
2021/12/05 13:20:52;;;;;;;3.17;1.88;;;7.20;93.20;;;;;;5036713;28;20273;-60
2021/12/05 13:23:21;;;;;;;4.90;2.10;;;7.20;93.30;;;;;;5036753;28;20243;-61
2021/12/05 13:26:06;;;;;;;7.47;2.70;;;7.10;93.50;;;;;;5036580;28;20198;-61
2021/12/05 13:28:35;;;;;;;1.85;1.30;;;7.20;93.70;;;;;;5035941;28;20662;-61
2021/12/05 13:31:44;;;;;;;6.40;2.00;;;7.30;93.70;;;;;;5036929;28;20230;-60
2021/12/05 13:34:48;;;;;;;9.32;2.92;;;7.40;93.40;;;;;;5037271;28;20197;-63
2021/12/05 13:37:29;;;;;;;3.17;1.92;;;7.30;93.20;;;;;;5036422;28;20559;-62
2021/12/05 13:40:05;;;;;;;7.10;2.38;;;7.30;93.20;;;;;;5035827;28;20194;-60
2021/12/05 13:42:42;;;;;;;4.53;1.98;;;7.40;93.20;;;;;;5036231;28;20237;-57
2021/12/05 13:45:21;;;;;;;9.82;2.13;;;7.40;93.10;;;;;;5036662;28;20193;-64
2021/12/05 13:48:10;;;;;;;6.40;4.50;;;7.40;93.00;;;;;;5037455;28;20186;-63
2021/12/05 13:50:43;;;;;;;6.40;2.60;;;7.30;93.00;;;;;;5037629;28;20233;-60
2021/12/05 13:53:23;;;;;;;5.57;2.50;;;7.40;93.00;;;;;;5037101;28;20229;-63
2021/12/05 13:56:14;;;;;;;8.38;2.70;;;7.30;93.10;;;;;;5037692;28;20300;-62
2021/12/05 13:58:46;;;;;;;8.77;3.58;;;7.30;93.10;;;;;;5038861;28;20198;-62
2021/12/05 14:01:16;;;;;;;5.30;2.22;;;7.30;93.00;;;;;;5040140;28;20276;-61
2021/12/05 14:03:50;;;;;;;7.95;2.55;;;7.30;93.00;;;;;;5037061;28;20198;-65
2021/12/05 14:06:35;;;;;;;5.78;2.10;;;7.20;92.90;;;;;;5036007;28;20584;-64
2021/12/05 14:09:13;;;;;;;5.95;2.05;;;7.10;93.10;;;;;;5035852;28;20190;-64
2021/12/05 14:11:45;;;;;;;6.32;2.50;;;7.10;93.20;;;;;;5036302;28;20228;-67
2021/12/05 14:14:14;;;;;;;6.10;2.30;;;7.10;93.20;;;;;;5035388;28;20190;-60
2021/12/05 14:16:43;;;;;;;5.95;1.85;;;7.00;93.10;;;;;;5035475;28;20206;-61
2021/12/05 14:19:14;;;;;;;4.15;2.10;;;7.00;93.30;;;;;;5035433;28;20573;-61
2021/12/05 14:21:43;;;;;;;5.65;2.10;;;7.00;93.30;;;;;;5034882;28;20233;-62
2021/12/05 14:24:12;;;;;;;4.88;2.33;;;7.00;93.20;;;;;;5035332;28;20220;-60
2021/12/05 14:26:40;;;;;;;7.03;2.38;;;7.00;93.20;;;;;;5034987;28;20554;-62
2021/12/05 14:29:12;;;;;;;7.38;2.83;;;7.00;93.40;;;;;;5034811;28;20198;-59
2021/12/05 14:31:42;;;;;;;5.35;2.08;;;6.90;93.00;;;;;;5034952;28;20221;-59
2021/12/05 14:34:10;;;;;;;6.15;2.45;;;6.90;93.20;;;;;;5035325;28;20213;-62
2021/12/05 14:36:43;;;;;;;5.30;2.40;;;6.80;93.30;;;;;;5034446;28;20199;-63
2021/12/05 14:39:15;;;;;;;4.60;2.33;;;6.80;93.50;;;;;;5034629;28;20188;-61
2021/12/05 14:41:44;;;;;;;10.20;2.50;;;6.70;93.60;;;;;;5034335;28;20223;-62
2021/12/05 14:44:12;;;;;;;3.92;2.65;;;6.70;93.70;;;;;;5034771;28;20210;-61
2021/12/05 14:46:48;;;;;;;6.50;2.70;;;6.60;93.80;;;;;;5034321;28;20313;-58
2021/12/05 14:49:15;;;;;;;4.80;2.60;;;6.50;93.90;;;;;;5034488;28;20206;-60
2021/12/05 14:51:45;;;;;;;6.22;2.33;;;6.50;93.90;;;;;;5034242;28;20568;-62
2021/12/05 14:54:20;;;;;;;6.10;2.38;;;6.40;93.90;;;;;;5034962;28;20222;-61
2021/12/05 14:56:47;;;;;;;5.80;2.53;;;6.40;94.00;;;;;;5035831;28;20206;-61
2021/12/05 14:59:16;;;;;;;9.00;3.47;;;6.30;94.00;;;;;;5035172;28;20203;-62
2021/12/05 15:01:47;;;;;;;6.80;2.42;;;6.20;94.10;;;;;;5034251;28;20218;-62
2021/12/05 15:04:19;;;;;;;5.35;2.53;;;6.20;94.20;;;;;;5035161;28;20207;-61
2021/12/05 15:06:47;;;;;;;6.07;2.63;;;6.20;94.20;;;;;;5034477;28;20191;-60
2021/12/05 15:09:23;;;;;;;11.98;2.70;;;6.10;94.30;;;;;;5034337;28;20207;-61
2021/12/05 15:11:56;;;;;;;5.57;2.75;;;6.00;94.40;;;;;;5033689;28;20229;-61
2021/12/05 15:14:28;;;;;;;5.75;2.30;;;6.00;94.50;;;;;;5034299;28;20191;-60
2021/12/05 15:17:03;;;;;;;4.95;2.40;;;5.90;94.70;;;;;;5035326;28;20202;-60
2021/12/05 15:19:31;;;;;;;6.35;2.35;;;5.80;95.00;;;;;;5036592;28;20187;-59
2021/12/05 15:21:59;;;;;;;7.57;2.70;;;5.80;95.30;;;;;;5035658;28;20233;-62
2021/12/05 15:24:28;;;;;;;5.75;2.40;;;5.70;95.60;;;;;;5035949;28;20564;-60
2021/12/05 15:26:57;;;;;;;5.65;2.78;;;5.70;95.70;;;;;;5035203;28;20580;-62
2021/12/05 15:29:25;;;;;;;11.65;3.10;;;5.70;95.80;;;;;;5035371;28;20621;-60
2021/12/05 15:31:54;;;;;;;9.23;3.35;;;5.70;95.90;;;;;;5035394;28;20223;-60
2021/12/05 15:34:23;;;;;;;5.70;2.83;;;5.70;96.10;;;;;;5035253;28;20198;-59
2021/12/05 15:36:51;;;;;;;7.65;3.30;;;5.60;96.30;;;;;;5035408;28;20202;-60
2021/12/05 15:39:23;;;;;;;6.45;4.05;;;5.60;96.50;;;;;;5035238;28;20213;-60
2021/12/05 15:41:52;;;;;;;4.65;3.38;;;5.60;96.60;;;;;;5035379;28;20256;-59
2021/12/05 15:44:35;;;;;;;4.82;3.20;;;5.60;96.70;;;;;;5035050;28;20215;-59
2021/12/05 15:47:08;;;;;;;7.65;3.47;;;5.60;96.90;;;;;;5033548;28;20191;-59
2021/12/05 15:49:58;;;;;;;10.23;3.45;;;5.60;96.90;;;;;;5033962;28;20202;-59
2021/12/05 15:52:28;;;;;;;8.52;4.20;;;5.50;97.10;;;;;;5029553;28;20635;-61
2021/12/05 15:54:57;;;;;;;6.85;4.00;;;5.40;97.30;;;;;;5033961;28;20182;-60
2021/12/05 15:57:31;;;;;;;6.10;3.80;;;5.40;97.50;;;;;;5033311;28;20210;-59
2021/12/05 16:00:03;;;;;;;9.95;5.40;;;5.30;97.60;;;;;;5033217;28;20635;-59
2021/12/05 16:02:30;;;;;;;6.80;4.38;;;5.30;97.90;;;;;;5033764;28;20230;-61
2021/12/05 16:04:57;;;;;;;7.43;4.65;;;5.30;98.10;;;;;;5033115;28;20289;-60
2021/12/05 16:07:30;;;;;;;8.35;5.38;;;5.20;98.40;;;;;;5033024;28;20199;-60
2021/12/05 16:10:18;;;;;;;6.82;4.25;;;5.20;98.60;;;;;;5033292;28;20222;-60
2021/12/05 16:12:46;;;;;;;8.20;4.22;;;5.20;98.90;;;;;;5033657;28;20197;-61
2021/12/05 16:15:19;;;;;;;8.35;5.25;;;5.20;99.00;;;;;;5033553;28;20206;-60
2021/12/05 16:17:54;;;;;;;8.98;4.97;;;5.10;99.00;;;;;;5034500;28;20191;-59
2021/12/05 16:20:25;;;;;;;11.70;5.88;;;5.10;99.30;;;;;;5033339;28;20205;-61
2021/12/05 16:23:05;;;;;;;8.27;4.90;;;5.10;99.50;;;;;;5067674;22;20238;-55
2021/12/05 16:25:34;;;;;;;8.95;4.90;;;5.00;99.70;;;;;;5032867;28;20191;-55
2021/12/05 16:28:05;;;;;;;7.90;4.88;;;5.00;99.90;;;;;;5033300;28;20210;-56
2021/12/05 16:30:35;;;;;;;5.18;4.68;;;4.90;99.90;;;;;;5032634;28;20296;-56
2021/12/05 16:33:05;;;;;;;10.75;4.90;;;4.90;99.90;;;;;;5032963;28;20229;-57
2021/12/05 16:35:35;;;;;;;11.90;4.90;;;4.80;99.90;;;;;;5032627;28;20205;-57
2021/12/05 16:38:17;;;;;;;6.55;4.63;;;4.80;99.90;;;;;;5032632;28;20206;-56
2021/12/05 16:40:54;;;;;;;7.85;5.57;;;4.70;99.90;;;;;;5032968;28;20244;-56
2021/12/05 16:43:22;;;;;;;10.50;6.28;;;4.70;99.90;;;;;;5032789;28;20226;-56
2021/12/05 16:45:49;;;;;;;10.23;5.82;;;4.70;99.90;;;;;;5032939;28;20213;-57
2021/12/05 16:48:18;;;;;;;13.93;6.28;;;4.60;99.90;;;;;;5033027;28;20225;-57
2021/12/05 16:50:46;;;;;;;12.45;7.38;;;4.60;99.90;;;;;;5032973;28;20585;-58
2021/12/05 16:53:14;;;;;;;12.68;6.82;;;4.60;99.90;;;;;;5032767;28;20222;-58
2021/12/05 16:55:56;;;;;;;10.80;7.35;;;4.50;99.90;;;;;;5033032;28;20210;-57
2021/12/05 16:58:24;;;;;;;12.75;6.50;;;4.60;99.90;;;;;;5032815;28;20189;-57
2021/12/05 17:00:53;;;;;;;10.55;8.05;;;4.60;99.90;;;;;;5032832;28;20202;-57
2021/12/05 17:03:23;;;;;;;15.60;7.95;;;4.60;99.90;;;;;;5032628;28;20233;-56
2021/12/05 17:05:54;;;;;;;9.85;7.53;;;4.60;99.90;;;;;;5032224;28;20203;-56
2021/12/05 17:08:24;;;;;;;11.43;7.03;;;4.60;99.90;;;;;;5033300;28;20241;-56
2021/12/05 17:10:56;;;;;;;15.02;8.85;;;4.60;99.90;;;;;;5032690;28;20211;-57
2021/12/05 17:13:26;;;;;;;9.15;7.57;;;4.70;99.90;;;;;;5032711;28;20233;-57
2021/12/05 17:15:59;;;;;;;16.58;8.95;;;4.70;99.90;;;;;;5034479;28;20182;-57
2021/12/05 17:18:30;;;;;;;16.40;9.02;;;4.70;99.90;;;;;;5035766;28;20193;-57
2021/12/05 17:20:59;;;;;;;12.45;8.20;;;4.70;99.90;;;;;;5036234;28;20187;-54
2021/12/05 17:23:31;;;;;;;10.85;9.10;;;4.70;99.90;;;;;;5035802;28;20253;-56
2021/12/05 17:26:10;;;;;;;11.18;8.82;;;4.70;99.90;;;;;;5035664;28;20685;-57
2021/12/05 17:28:42;;;;;;;13.98;10.18;;;4.70;99.90;;;;;;5035860;28;20186;-56
2021/12/05 17:31:14;;;;;;;12.95;8.85;;;4.70;99.90;;;;;;5035972;28;20264;-56
2021/12/05 17:33:44;;;;;;;13.98;7.78;;;4.70;99.90;;;;;;5035978;28;20187;-56